Time;durP1;ratioP1;P1;durP2;ratioP2;P2;SDS_P1;SDS_P2;PMS_P1;PMS_P2;Temp;Humidity;BMP_temperature;BMP_pressure;BME280_temperature;BME280_humidity;BME280_pressure;Samples;Min_cycle;Max_cycle;Signal;HPM_P1;HPM_P2
2021/11/02 00:00:52;;;;;;;3.40;1.00;;;8.30;93.40;;;;;;5036153;28;20037;-79
2021/11/02 00:03:17;;;;;;;4.00;0.80;;;8.30;93.50;;;;;;5052771;28;20417;-79
2021/11/02 00:05:43;;;;;;;6.35;0.98;;;8.30;93.50;;;;;;5035724;28;20032;-79
2021/11/02 00:08:09;;;;;;;2.00;0.88;;;8.30;93.50;;;;;;5052601;28;20440;-79
2021/11/02 00:10:35;;;;;;;3.28;0.90;;;8.30;93.50;;;;;;5034890;28;20035;-79
2021/11/02 00:13:02;;;;;;;5.28;0.95;;;8.30;93.50;;;;;;5018574;28;20477;-79
2021/11/02 00:15:30;;;;;;;4.53;1.10;;;8.30;93.50;;;;;;5051587;28;20025;-78
2021/11/02 00:18:00;;;;;;;2.20;1.00;;;8.20;93.50;;;;;;5051785;28;20520;-79
2021/11/02 00:20:26;;;;;;;;;;;8.20;93.50;;;;;;5053410;28;20040;-79
2021/11/02 00:22:55;;;;;;;3.25;1.10;;;8.20;93.40;;;;;;5048556;28;19916;-79
2021/11/02 00:25:23;;;;;;;2.28;1.10;;;8.20;93.50;;;;;;5051514;28;20029;-79
2021/11/02 00:27:49;;;;;;;2.72;0.80;;;8.10;93.50;;;;;;5051205;28;20049;-79
2021/11/02 00:30:16;;;;;;;6.95;1.15;;;8.10;93.60;;;;;;5051520;28;20056;-79
2021/11/02 00:32:44;;;;;;;4.93;1.30;;;8.10;93.50;;;;;;5052984;28;20078;-79
2021/11/02 00:35:12;;;;;;;5.65;1.40;;;8.10;93.50;;;;;;5051343;28;20029;-79
2021/11/02 00:37:38;;;;;;;5.53;1.50;;;8.10;93.60;;;;;;5052587;28;20032;-79
2021/11/02 00:40:06;;;;;;;4.43;1.13;;;8.10;93.50;;;;;;5050165;28;20044;-79
2021/11/02 00:42:50;;;;;;;4.97;1.15;;;8.10;93.80;;;;;;5051977;28;20029;-79
2021/11/02 00:45:26;;;;;;;2.33;1.15;;;8.10;93.60;;;;;;5050182;28;20139;-78
2021/11/02 00:47:52;;;;;;;6.38;1.40;;;8.00;93.50;;;;;;5043336;28;20093;-79
2021/11/02 00:50:18;;;;;;;10.52;1.50;;;8.10;93.60;;;;;;5050029;28;20486;-79
2021/11/02 00:52:44;;;;;;;5.90;1.40;;;8.00;93.50;;;;;;5049421;28;20021;-79
2021/11/02 00:55:10;;;;;;;3.92;1.38;;;8.00;93.50;;;;;;5049755;28;20027;-79
2021/11/02 00:57:36;;;;;;;8.20;1.50;;;8.00;93.50;;;;;;5049445;28;20029;-79
2021/11/02 01:00:03;;;;;;;7.93;1.30;;;7.90;93.50;;;;;;5029675;28;20025;-78
2021/11/02 01:02:28;;;;;;;5.22;0.90;;;8.00;93.50;;;;;;5050529;28;20028;-78
2021/11/02 01:04:54;;;;;;;5.13;1.45;;;8.00;93.50;;;;;;5049216;28;20029;-79
2021/11/02 01:07:20;;;;;;;6.10;1.15;;;7.90;93.50;;;;;;5049698;28;20037;-79
2021/11/02 01:09:45;;;;;;;4.93;1.13;;;7.90;93.40;;;;;;5051112;28;20119;-79
2021/11/02 01:12:11;;;;;;;5.20;1.30;;;7.90;93.40;;;;;;5052253;28;20108;-79
2021/11/02 01:14:38;;;;;;;4.55;1.42;;;7.90;93.40;;;;;;5051982;28;20373;-79
2021/11/02 01:17:04;;;;;;;3.85;0.95;;;7.90;93.50;;;;;;5052368;28;20031;-79
2021/11/02 01:19:30;;;;;;;4.82;1.25;;;7.90;93.50;;;;;;5052281;28;20029;-79
2021/11/02 01:21:55;;;;;;;3.83;1.30;;;7.90;93.50;;;;;;5052226;28;20485;-79
2021/11/02 01:24:21;;;;;;;4.85;1.40;;;7.80;93.50;;;;;;5050547;28;20051;-79
2021/11/02 01:26:48;;;;;;;5.40;1.40;;;7.80;93.50;;;;;;5051740;28;20053;-79
2021/11/02 01:29:15;;;;;;;4.93;1.27;;;7.80;93.50;;;;;;5047649;28;20102;-79
2021/11/02 01:31:43;;;;;;;4.03;1.10;;;7.80;93.50;;;;;;5047573;28;20022;-79
2021/11/02 01:34:08;;;;;;;3.58;1.08;;;7.70;93.50;;;;;;5049107;28;20499;-79
2021/11/02 01:36:34;;;;;;;4.00;1.20;;;7.70;93.50;;;;;;5031472;28;20115;-79
2021/11/02 01:39:01;;;;;;;3.90;1.20;;;7.70;93.50;;;;;;5047600;28;20029;-79
2021/11/02 01:41:28;;;;;;;5.15;1.48;;;7.70;93.60;;;;;;5031491;28;20524;-79
2021/11/02 01:43:57;;;;;;;6.15;1.23;;;7.70;93.60;;;;;;5047412;28;20175;-79
2021/11/02 01:46:25;;;;;;;5.60;1.30;;;7.70;93.60;;;;;;5050304;28;20047;-79
2021/11/02 01:48:53;;;;;;;6.85;1.30;;;7.60;93.60;;;;;;5051117;28;20025;-79
2021/11/02 01:51:20;;;;;;;4.13;1.20;;;7.70;93.60;;;;;;5052534;28;20027;-78
2021/11/02 01:53:45;;;;;;;4.80;1.40;;;7.60;93.50;;;;;;5050967;28;20071;-79
2021/11/02 01:56:12;;;;;;;2.83;1.55;;;7.60;93.80;;;;;;5032143;28;20038;-79
2021/11/02 01:58:39;;;;;;;5.28;1.40;;;7.60;93.50;;;;;;5052306;28;20425;-79
2021/11/02 02:01:08;;;;;;;5.88;1.17;;;7.60;93.60;;;;;;5052500;28;20051;-79
2021/11/02 02:03:52;;;;;;;6.17;1.20;;;7.60;93.70;;;;;;5051026;28;20056;-79
2021/11/02 02:06:34;;;;;;;5.82;1.45;;;7.60;93.60;;;;;;5051675;28;20763;-78
2021/11/02 02:09:25;;;;;;;2.65;1.30;;;7.60;93.90;;;;;;5052142;28;20017;-79
2021/11/02 02:12:01;;;;;;;5.65;1.48;;;7.60;93.60;;;;;;5050424;28;20902;-79
2021/11/02 02:15:08;;;;;;;6.10;1.60;;;7.50;93.60;;;;;;5051601;28;20112;-79
2021/11/02 02:17:55;;;;;;;4.20;1.65;;;7.60;93.70;;;;;;5028796;28;20119;-79
2021/11/02 02:20:42;;;;;;;5.80;1.40;;;7.50;93.70;;;;;;5033177;28;20914;-79
2021/11/02 02:23:19;;;;;;;2.17;1.20;;;7.50;93.70;;;;;;5052112;28;20021;-79
2021/11/02 02:25:57;;;;;;;3.75;1.13;;;7.50;93.80;;;;;;5051762;28;20108;-79
2021/11/02 02:28:31;;;;;;;8.75;1.80;;;7.50;93.80;;;;;;5051585;28;20117;-79
2021/11/02 02:31:08;;;;;;;6.60;1.75;;;7.50;93.80;;;;;;5052353;28;20107;-79
2021/11/02 02:33:41;;;;;;;3.45;1.40;;;7.50;93.80;;;;;;5052078;28;20071;-79
2021/11/02 02:36:07;;;;;;;6.15;1.60;;;7.50;93.80;;;;;;5053981;28;20032;-79
2021/11/02 02:38:40;;;;;;;4.85;1.63;;;7.40;93.80;;;;;;5055341;28;20091;-79
2021/11/02 02:41:07;;;;;;;5.65;1.50;;;7.50;93.90;;;;;;5054369;28;20120;-79
2021/11/02 02:43:36;;;;;;;3.35;1.38;;;7.40;93.90;;;;;;5054244;28;20036;-79
2021/11/02 02:46:02;;;;;;;3.13;1.70;;;7.40;93.90;;;;;;5054003;28;20111;-79
2021/11/02 02:48:30;;;;;;;4.35;1.70;;;7.40;93.90;;;;;;5054129;28;20029;-78
2021/11/02 02:50:57;;;;;;;6.10;1.60;;;7.40;93.90;;;;;;5053972;28;20474;-79
2021/11/02 02:53:25;;;;;;;7.10;1.70;;;7.40;93.90;;;;;;5055431;28;20039;-79
2021/11/02 02:55:53;;;;;;;4.57;1.52;;;7.50;93.90;;;;;;5053768;28;20033;-79
2021/11/02 02:58:20;;;;;;;5.47;1.70;;;7.50;93.90;;;;;;5055034;28;20394;-79
2021/11/02 03:00:47;;;;;;;4.78;1.33;;;7.40;93.90;;;;;;5033739;28;20489;-79
2021/11/02 03:03:14;;;;;;;3.38;1.73;;;7.40;93.90;;;;;;5035233;28;20113;-79
2021/11/02 03:05:41;;;;;;;6.68;1.85;;;7.50;94.00;;;;;;5052035;28;20147;-79
2021/11/02 03:08:07;;;;;;;3.13;1.65;;;7.50;94.00;;;;;;5053565;28;20127;-79
2021/11/02 03:10:33;;;;;;;5.47;2.05;;;7.50;94.00;;;;;;5053541;28;20029;-79
2021/11/02 03:13:07;;;;;;;6.28;1.50;;;7.40;94.00;;;;;;5055026;28;20079;-78
2021/11/02 03:18:53;;;;;;;6.05;1.65;;;7.50;94.00;;;;;;5054712;28;20025;-79
2021/11/02 03:51:42;;;;;;;5.03;1.50;;;7.20;93.90;;;;;;5053900;28;20041;-79
2021/11/02 05:11:52;;;;;;;5.13;2.22;;;7.30;94.30;;;;;;5050876;28;20029;-79
2021/11/02 05:58:48;;;;;;;5.47;2.70;;;7.50;94.30;;;;;;5052018;28;20075;-79
2021/11/02 06:01:15;;;;;;;4.68;2.78;;;7.50;94.30;;;;;;5040711;28;20040;-79
2021/11/02 06:03:57;;;;;;;4.43;2.45;;;7.50;94.30;;;;;;5045129;28;20086;-79
2021/11/02 06:29:27;;;;;;;6.78;2.40;;;7.40;94.30;;;;;;5055608;28;20087;-78
2021/11/02 06:31:57;;;;;;;3.97;2.13;;;7.50;94.40;;;;;;5055690;28;20051;-78
2021/11/02 06:37:23;;;;;;;4.07;2.55;;;7.60;94.40;;;;;;5055342;28;20115;-78
2021/11/02 06:56:18;;;;;;;7.65;2.10;;;7.70;94.40;;;;;;5056022;28;20098;-78
2021/11/02 07:19:19;;;;;;;8.52;2.22;;;8.00;94.50;;;;;;5055224;28;20052;-78
2021/11/02 07:24:28;;;;;;;7.05;1.83;;;8.00;94.50;;;;;;5054835;28;20029;-78
2021/11/02 07:27:08;;;;;;;7.63;1.70;;;8.10;94.50;;;;;;5055379;28;20025;-79
2021/11/02 08:46:09;;;;;;;4.47;2.53;;;8.80;94.30;;;;;;5031740;28;20095;-79
2021/11/02 08:48:35;;;;;;;10.52;3.28;;;8.80;94.30;;;;;;5031638;28;20375;-79
2021/11/02 08:51:01;;;;;;;6.47;3.15;;;8.80;94.30;;;;;;5032579;28;20036;-79
2021/11/02 08:53:27;;;;;;;9.13;3.10;;;8.80;94.40;;;;;;5032042;28;20037;-78
2021/11/02 08:55:55;;;;;;;9.43;2.38;;;8.80;94.40;;;;;;5031957;28;20033;-79
2021/11/02 08:58:25;;;;;;;7.72;3.08;;;8.80;94.40;;;;;;5048731;28;20029;-78
2021/11/02 09:00:54;;;;;;;6.82;2.90;;;8.90;94.50;;;;;;5033333;28;20036;-79
2021/11/02 09:03:22;;;;;;;6.38;3.25;;;9.00;94.50;;;;;;5033190;28;20087;-79
2021/11/02 09:05:54;;;;;;;8.13;3.87;;;9.00;94.50;;;;;;5033448;28;20055;-79
2021/11/02 09:08:24;;;;;;;4.95;3.38;;;9.10;94.50;;;;;;5033239;28;20018;-79
2021/11/02 09:10:50;;;;;;;10.23;3.70;;;9.10;94.40;;;;;;5033257;28;20024;-79
2021/11/02 09:13:16;;;;;;;9.55;3.90;;;9.20;94.40;;;;;;5047903;28;20021;-79
2021/11/02 09:15:47;;;;;;;10.52;4.00;;;9.20;94.30;;;;;;5051668;28;20029;-79
2021/11/02 09:18:14;;;;;;;7.50;3.58;;;9.30;94.30;;;;;;5051494;28;20034;-80
2021/11/02 09:20:39;;;;;;;8.32;4.18;;;9.40;94.30;;;;;;5051520;28;20108;-79
2021/11/02 09:23:06;;;;;;;7.25;4.72;;;9.50;94.20;;;;;;5053102;28;20113;-79
2021/11/02 09:25:33;;;;;;;11.98;4.25;;;9.60;94.20;;;;;;5052915;28;20033;-79
2021/11/02 09:27:59;;;;;;;10.65;4.30;;;9.60;94.10;;;;;;5051308;28;20136;-79
2021/11/02 09:30:27;;;;;;;6.88;3.80;;;9.70;94.10;;;;;;5051620;28;20029;-79
2021/11/02 09:32:54;;;;;;;9.80;3.65;;;9.70;94.00;;;;;;5035130;28;20390;-80
2021/11/02 09:35:23;;;;;;;10.25;4.68;;;9.80;94.00;;;;;;5052591;28;20025;-80
2021/11/02 09:38:03;;;;;;;10.18;4.18;;;9.80;94.00;;;;;;5052535;28;20120;-79
2021/11/02 09:40:28;;;;;;;10.57;4.20;;;9.80;94.10;;;;;;5050779;28;20119;-79
2021/11/02 09:43:05;;;;;;;8.35;3.88;;;9.90;94.00;;;;;;5052083;28;20059;-79
2021/11/02 09:45:53;;;;;;;10.05;4.15;;;10.00;94.10;;;;;;5056631;28;20032;-79
2021/11/02 09:48:57;;;;;;;6.38;4.18;;;10.00;94.10;;;;;;5055803;28;20116;-79
2021/11/02 09:51:59;;;;;;;5.88;3.80;;;10.10;94.00;;;;;;5014754;28;20032;-79
2021/11/02 09:54:34;;;;;;;7.20;3.47;;;10.10;94.00;;;;;;5015215;28;20034;-79
2021/11/02 09:57:23;;;;;;;7.43;3.38;;;10.30;94.00;;;;;;5043131;28;20041;-79
2021/11/02 10:00:13;;;;;;;5.10;3.08;;;10.40;93.90;;;;;;5037007;28;20561;-79
2021/11/02 10:03:10;;;;;;;7.80;3.22;;;10.50;93.80;;;;;;5036897;28;20037;-79
2021/11/02 10:06:04;;;;;;;6.97;2.65;;;10.60;93.50;;;;;;5044782;28;20056;-79
2021/11/02 10:08:34;;;;;;;6.95;3.08;;;10.70;93.40;;;;;;5056592;28;20079;-79
2021/11/02 10:11:02;;;;;;;;;;;10.80;93.30;;;;;;5057025;28;20478;-78
2021/11/02 10:13:49;;;;;;;5.85;2.60;;;11.00;93.20;;;;;;5056082;28;20323;-78
2021/11/02 10:16:36;;;;;;;3.95;2.50;;;11.10;93.10;;;;;;5055194;28;20481;-78
2021/11/02 10:19:08;;;;;;;6.82;2.50;;;11.10;93.00;;;;;;5036502;28;20030;-78
2021/11/02 10:22:08;;;;;;;13.30;2.67;;;11.10;92.90;;;;;;5035015;28;20425;-78
2021/11/02 10:25:10;;;;;;;4.55;2.80;;;11.10;92.90;;;;;;5035200;28;20080;-77
2021/11/02 10:28:25;;;;;;;5.40;2.50;;;11.00;92.90;;;;;;5036066;28;20117;-78
2021/11/02 10:31:02;;;;;;;6.47;2.80;;;11.00;93.10;;;;;;5056125;28;20113;-78
2021/11/02 10:33:33;;;;;;;6.35;2.10;;;11.00;93.00;;;;;;5034923;28;20018;-78
2021/11/02 10:36:24;;;;;;;3.72;2.08;;;11.10;92.90;;;;;;5048032;28;20028;-78
2021/11/02 10:38:57;;;;;;;4.65;2.20;;;11.10;92.80;;;;;;5055901;28;20025;-78
2021/11/02 10:41:34;;;;;;;6.30;1.90;;;11.10;92.80;;;;;;5040740;28;20104;-78
2021/11/02 10:44:20;;;;;;;4.72;2.03;;;11.20;92.80;;;;;;5036170;28;20033;-78
2021/11/02 10:47:08;;;;;;;4.90;2.40;;;11.30;92.70;;;;;;5034757;28;20032;-78
2021/11/02 10:49:36;;;;;;;4.53;1.90;;;11.30;92.80;;;;;;5051237;28;20022;-78
2021/11/02 10:52:07;;;;;;;4.30;1.90;;;11.40;92.80;;;;;;5048992;28;20124;-78
2021/11/02 10:54:36;;;;;;;3.40;1.98;;;11.50;92.70;;;;;;5053938;28;20040;-78
2021/11/02 10:57:19;;;;;;;4.55;1.73;;;11.50;92.60;;;;;;5052640;28;20052;-78
2021/11/02 10:59:49;;;;;;;6.60;1.80;;;11.50;92.60;;;;;;5054184;28;20474;-79
2021/11/02 11:02:29;;;;;;;5.28;1.80;;;11.40;92.60;;;;;;5055090;28;20056;-78
2021/11/02 11:05:03;;;;;;;7.63;1.85;;;11.50;92.70;;;;;;5055299;28;20036;-78
2021/11/02 11:07:40;;;;;;;5.38;1.67;;;11.50;92.50;;;;;;5055365;28;20071;-78
2021/11/02 11:10:08;;;;;;;5.75;1.63;;;11.50;92.50;;;;;;5055616;28;20025;-78
2021/11/02 11:12:51;;;;;;;3.83;1.40;;;11.50;92.50;;;;;;5055564;28;20028;-78
2021/11/02 11:15:18;;;;;;;3.22;1.50;;;11.50;92.50;;;;;;5039974;28;20035;-78
2021/11/02 11:18:02;;;;;;;4.28;1.33;;;11.50;92.50;;;;;;5054107;28;20466;-76
2021/11/02 11:20:29;;;;;;;2.88;1.60;;;11.60;92.20;;;;;;5053931;28;20044;-75
2021/11/02 11:22:57;;;;;;;5.47;1.50;;;11.60;91.70;;;;;;5055141;28;20029;-75
2021/11/02 11:25:45;;;;;;;5.78;1.70;;;11.60;91.90;;;;;;5055136;28;20407;-76
2021/11/02 11:28:15;;;;;;;6.22;1.60;;;11.70;91.90;;;;;;5055063;28;20041;-78
2021/11/02 11:30:42;;;;;;;3.22;1.30;;;11.70;91.90;;;;;;5037425;28;20075;-80
2021/11/02 11:33:11;;;;;;;4.78;1.60;;;11.80;91.80;;;;;;5054049;28;20471;-79
2021/11/02 11:35:38;;;;;;;;;;;11.90;91.70;;;;;;5054355;28;20032;-79
2021/11/02 11:38:05;;;;;;;2.60;1.20;;;12.10;91.60;;;;;;5055244;28;20003;-79
2021/11/02 11:40:34;;;;;;;2.25;1.10;;;12.10;91.50;;;;;;5053874;28;20036;-80
2021/11/02 11:43:03;;;;;;;5.57;1.00;;;12.10;91.40;;;;;;5055150;28;20100;-79
2021/11/02 11:45:30;;;;;;;3.40;1.17;;;12.20;91.40;;;;;;5053810;28;20420;-81
2021/11/02 11:48:20;;;;;;;2.72;1.20;;;12.20;91.30;;;;;;5053702;28;20051;-81
2021/11/02 11:50:47;;;;;;;2.55;0.90;;;12.20;91.10;;;;;;5053377;28;20070;-81
2021/11/02 11:53:21;;;;;;;7.00;1.20;;;12.20;91.00;;;;;;5053596;28;20020;-81
2021/11/02 11:56:00;;;;;;;4.18;1.13;;;12.20;91.00;;;;;;5054858;28;20116;-81
2021/11/02 11:58:25;;;;;;;2.25;0.88;;;12.30;91.00;;;;;;5053559;28;20086;-81
2021/11/02 12:00:54;;;;;;;3.28;1.00;;;12.30;91.10;;;;;;5037011;28;20029;-81
2021/11/02 12:03:42;;;;;;;3.20;1.15;;;12.30;90.80;;;;;;5052872;28;20025;-83
2021/11/02 12:06:20;;;;;;;3.00;0.98;;;12.30;90.60;;;;;;5051962;28;20029;-83
2021/11/02 12:09:06;;;;;;;5.07;1.15;;;12.30;90.50;;;;;;5040149;28;20065;-83
2021/11/02 12:11:33;;;;;;;4.78;0.70;;;12.30;90.60;;;;;;5033723;28;20505;-83
2021/11/02 12:14:08;;;;;;;2.53;1.00;;;12.30;90.40;;;;;;5032976;28;20033;-83
2021/11/02 12:16:37;;;;;;;1.75;0.80;;;12.20;90.10;;;;;;5033230;28;20053;-83
2021/11/02 12:19:19;;;;;;;2.70;1.00;;;12.20;90.10;;;;;;5032763;28;20025;-83
2021/11/02 12:21:51;;;;;;;5.93;1.00;;;12.10;90.20;;;;;;5034059;28;20017;-83
2021/11/02 12:24:18;;;;;;;6.93;1.17;;;12.10;90.30;;;;;;5033138;28;20041;-82
2021/11/02 12:26:48;;;;;;;3.55;1.10;;;12.00;90.30;;;;;;5016548;28;20063;-82
2021/11/02 12:29:24;;;;;;;2.63;0.88;;;12.00;90.30;;;;;;5032812;28;20037;-83
2021/11/02 12:32:05;;;;;;;3.50;0.90;;;12.00;90.60;;;;;;5050993;28;20083;-82
2021/11/02 12:35:05;;;;;;;3.88;1.15;;;12.00;90.80;;;;;;5022193;28;20386;-82
2021/11/02 12:37:31;;;;;;;4.72;1.45;;;12.00;90.80;;;;;;5033465;28;20037;-82
2021/11/02 12:40:27;;;;;;;4.13;0.95;;;12.00;90.70;;;;;;5031964;28;20033;-82
2021/11/02 12:42:52;;;;;;;4.75;1.50;;;12.00;90.60;;;;;;5051564;28;20075;-83
2021/11/02 12:45:22;;;;;;;4.95;1.17;;;11.90;90.60;;;;;;5040060;28;20033;-83
2021/11/02 12:47:48;;;;;;;;;;;11.90;90.70;;;;;;5034706;28;20043;-83
2021/11/02 12:50:16;;;;;;;3.05;1.10;;;11.90;90.70;;;;;;5053447;28;19912;-84
2021/11/02 12:52:45;;;;;;;4.90;1.10;;;11.80;91.00;;;;;;5052515;28;20025;-84
2021/11/02 12:55:14;;;;;;;2.00;0.80;;;11.80;91.20;;;;;;5052425;28;20021;-83
2021/11/02 12:57:42;;;;;;;3.28;0.70;;;11.70;91.30;;;;;;5053404;28;20052;-83
2021/11/02 13:00:14;;;;;;;3.22;0.60;;;11.60;91.30;;;;;;5046973;28;20034;-82
2021/11/02 13:02:45;;;;;;;1.60;0.40;;;11.50;91.30;;;;;;5032291;28;20032;-83
2021/11/02 13:05:25;;;;;;;1.95;0.68;;;11.50;91.40;;;;;;5034588;28;20171;-83
2021/11/02 13:08:02;;;;;;;1.60;0.57;;;11.50;91.60;;;;;;5051828;28;20059;-83
2021/11/02 13:10:31;;;;;;;2.28;0.60;;;11.60;91.80;;;;;;5053304;28;20063;-84
2021/11/02 13:13:07;;;;;;;1.20;0.50;;;11.60;91.70;;;;;;5052121;28;20028;-84
2021/11/02 13:15:51;;;;;;;0.98;0.40;;;11.70;91.70;;;;;;5051820;28;20067;-84
2021/11/02 13:18:39;;;;;;;0.98;0.40;;;11.80;91.70;;;;;;5052676;28;20041;-84
2021/11/02 13:21:29;;;;;;;1.60;0.40;;;11.90;91.60;;;;;;5051567;28;20025;-84
2021/11/02 13:23:59;;;;;;;2.40;0.65;;;11.80;91.70;;;;;;5036012;28;20059;-84
2021/11/02 13:26:26;;;;;;;1.75;0.50;;;11.80;91.80;;;;;;5035226;28;20752;-85
2021/11/02 13:28:54;;;;;;;0.90;0.45;;;11.70;91.90;;;;;;5034875;28;20053;-84
2021/11/02 13:31:31;;;;;;;1.95;0.50;;;11.80;92.10;;;;;;5056721;28;20020;-84
2021/11/02 13:34:06;;;;;;;0.77;0.40;;;11.80;92.00;;;;;;5051390;28;20053;-85
2021/11/02 13:36:32;;;;;;;2.00;0.47;;;11.90;91.90;;;;;;5051201;28;20020;-84
2021/11/02 13:39:09;;;;;;;1.65;0.68;;;11.90;92.00;;;;;;5034739;28;20059;-84
2021/11/02 13:41:53;;;;;;;1.83;0.60;;;11.90;92.00;;;;;;5050959;28;20713;-84
2021/11/02 13:44:20;;;;;;;1.30;0.80;;;11.90;92.00;;;;;;5034470;28;20064;-84
2021/11/02 13:46:52;;;;;;;1.02;0.63;;;11.80;91.90;;;;;;5050958;28;20029;-85
2021/11/02 13:49:19;;;;;;;2.03;0.80;;;11.80;91.90;;;;;;5050713;28;20037;-84
2021/11/02 13:51:45;;;;;;;3.75;0.88;;;11.80;92.00;;;;;;5051031;28;20052;-83
2021/11/02 13:54:12;;;;;;;1.25;0.75;;;11.80;92.20;;;;;;5034339;28;20082;-83
2021/11/02 13:56:41;;;;;;;1.85;0.90;;;11.80;92.30;;;;;;5034344;28;20125;-83
2021/11/02 13:59:08;;;;;;;1.20;0.88;;;11.80;92.40;;;;;;5052426;28;20025;-84
2021/11/02 14:01:45;;;;;;;4.22;0.95;;;11.80;92.50;;;;;;5052338;28;20029;-83
2021/11/02 14:04:25;;;;;;;3.13;0.90;;;11.80;92.60;;;;;;5052488;28;20416;-83
2021/11/02 14:07:11;;;;;;;3.17;0.80;;;11.70;92.70;;;;;;5052340;28;20481;-83
2021/11/02 14:09:40;;;;;;;4.07;1.20;;;11.60;92.80;;;;;;5051216;28;20029;-83
2021/11/02 14:12:27;;;;;;;3.85;1.95;;;11.60;92.90;;;;;;5051006;28;20021;-80
2021/11/02 14:15:14;;;;;;;3.33;2.00;;;11.50;92.90;;;;;;5052363;28;20083;-81
2021/11/02 14:17:41;;;;;;;3.47;1.75;;;11.30;93.00;;;;;;5051212;28;20029;-80
2021/11/02 14:20:10;;;;;;;3.47;1.92;;;11.30;93.10;;;;;;5051103;28;20492;-80
2021/11/02 14:22:46;;;;;;;2.75;1.50;;;11.20;93.30;;;;;;5050791;28;20032;-81
2021/11/02 14:25:15;;;;;;;4.82;1.55;;;11.20;93.30;;;;;;5050876;28;20033;-81
2021/11/02 14:27:49;;;;;;;3.88;1.73;;;11.10;93.30;;;;;;5031754;28;20461;-82
2021/11/02 14:30:33;;;;;;;3.45;1.65;;;11.20;93.40;;;;;;5051761;28;20528;-82
2021/11/02 14:33:15;;;;;;;3.08;1.88;;;11.20;93.40;;;;;;5053495;28;20025;-82
2021/11/02 14:35:50;;;;;;;3.20;1.52;;;11.20;93.40;;;;;;5054960;28;20071;-82
2021/11/02 14:38:23;;;;;;;4.63;2.47;;;11.20;93.50;;;;;;5054906;28;20505;-82
2021/11/02 14:40:51;;;;;;;3.78;2.22;;;11.20;93.50;;;;;;5055209;28;20029;-81
2021/11/02 14:43:21;;;;;;;4.93;2.40;;;11.30;93.50;;;;;;5052639;28;20108;-81
2021/11/02 14:45:51;;;;;;;6.85;2.38;;;11.30;93.50;;;;;;5053583;28;20128;-81
2021/11/02 14:48:26;;;;;;;3.83;2.45;;;11.40;93.40;;;;;;5053673;28;20485;-81
2021/11/02 14:50:55;;;;;;;5.38;2.50;;;11.40;93.40;;;;;;5055271;28;20033;-81
2021/11/02 14:53:27;;;;;;;3.00;2.20;;;11.30;93.40;;;;;;5054825;28;20478;-81
2021/11/02 14:55:56;;;;;;;8.82;2.90;;;11.20;93.50;;;;;;5054298;28;20048;-81
2021/11/02 14:58:42;;;;;;;3.92;2.40;;;11.20;93.60;;;;;;5052242;28;20489;-81
2021/11/02 15:01:25;;;;;;;3.38;2.90;;;11.20;93.70;;;;;;5050968;28;20033;-82
2021/11/02 15:03:59;;;;;;;9.13;3.92;;;11.20;93.70;;;;;;5052589;28;20112;-81
2021/11/02 15:06:36;;;;;;;4.70;3.03;;;11.10;93.70;;;;;;5049950;28;20505;-81
2021/11/02 15:09:07;;;;;;;7.72;4.82;;;11.10;93.80;;;;;;5051936;28;20028;-81
2021/11/02 15:11:33;;;;;;;5.88;3.90;;;11.10;93.70;;;;;;5054506;28;20032;-81
2021/11/02 15:14:03;;;;;;;6.25;4.68;;;11.10;93.80;;;;;;5054711;28;20367;-80
2021/11/02 15:16:29;;;;;;;5.88;4.18;;;11.10;93.80;;;;;;5055256;28;20028;-81
2021/11/02 15:19:04;;;;;;;5.65;4.60;;;11.10;93.90;;;;;;5065898;28;20446;-81
2021/11/02 15:21:29;;;;;;;7.55;4.70;;;11.00;93.90;;;;;;5075446;28;20028;-81
2021/11/02 15:23:55;;;;;;;10.15;6.47;;;11.00;94.00;;;;;;5075115;28;20012;-80
2021/11/02 15:26:21;;;;;;;11.43;5.32;;;11.00;94.00;;;;;;5074791;28;20036;-81
2021/11/02 15:28:49;;;;;;;7.28;5.03;;;10.90;94.00;;;;;;5062194;28;20053;-80
2021/11/02 15:31:18;;;;;;;9.50;5.90;;;10.90;94.10;;;;;;5050375;28;20024;-80
2021/11/02 15:33:44;;;;;;;4.93;4.25;;;10.80;94.00;;;;;;5057978;28;20104;-80
2021/11/02 15:36:20;;;;;;;9.50;6.18;;;10.80;94.10;;;;;;5053862;28;20025;-80
2021/11/02 15:39:06;;;;;;;7.10;5.45;;;10.90;94.20;;;;;;5054914;28;20107;-81
2021/11/02 15:41:33;;;;;;;9.25;6.72;;;10.80;94.20;;;;;;5054719;28;20056;-80
2021/11/02 15:44:01;;;;;;;9.68;5.55;;;10.80;94.20;;;;;;5053036;28;20032;-80
2021/11/02 15:46:38;;;;;;;14.40;7.18;;;10.80;94.20;;;;;;5054183;28;20024;-81
2021/11/02 15:49:11;;;;;;;14.73;7.00;;;10.80;94.20;;;;;;5038847;28;20053;-83
2021/11/02 15:51:40;;;;;;;9.88;6.45;;;10.70;94.20;;;;;;5048680;28;20025;-83
2021/11/02 15:54:15;;;;;;;12.18;6.28;;;10.60;94.20;;;;;;5053341;28;20116;-83
2021/11/02 15:56:42;;;;;;;10.85;7.07;;;10.60;94.20;;;;;;5053112;28;20045;-82
2021/11/02 15:59:10;;;;;;;11.13;7.15;;;10.50;94.20;;;;;;5053850;28;20032;-83
2021/11/02 16:01:43;;;;;;;10.20;6.77;;;10.50;94.30;;;;;;5030137;28;20087;-82
2021/11/02 16:04:17;;;;;;;9.02;7.80;;;10.50;94.30;;;;;;5052562;28;20286;-81
2021/11/02 16:06:51;;;;;;;8.88;6.72;;;10.40;94.30;;;;;;5053275;28;20034;-82
2021/11/02 16:09:17;;;;;;;10.88;7.72;;;10.40;94.40;;;;;;5054365;28;20036;-82
2021/11/02 16:11:43;;;;;;;8.00;7.03;;;10.40;94.40;;;;;;5032896;28;20025;-83
2021/11/02 16:14:08;;;;;;;11.75;7.32;;;10.30;94.40;;;;;;5023071;28;20052;-83
2021/11/02 16:16:36;;;;;;;10.38;6.55;;;10.30;94.50;;;;;;5036378;28;20492;-82
2021/11/02 16:19:03;;;;;;;13.00;8.75;;;10.30;94.50;;;;;;5036310;28;20052;-82
2021/11/02 16:21:32;;;;;;;14.35;9.70;;;10.20;94.50;;;;;;5052717;28;20087;-82
2021/11/02 16:24:11;;;;;;;9.13;7.97;;;10.20;94.60;;;;;;5052639;28;20059;-81
2021/11/02 16:26:39;;;;;;;14.20;7.95;;;10.20;94.60;;;;;;5051479;28;20021;-81
2021/11/02 16:29:13;;;;;;;13.30;8.65;;;10.20;94.60;;;;;;5052144;28;20056;-81
2021/11/02 16:31:41;;;;;;;11.85;8.05;;;10.10;94.60;;;;;;5052314;28;20112;-81
2021/11/02 16:34:24;;;;;;;11.40;8.23;;;10.10;94.60;;;;;;5052494;28;20086;-81
2021/11/02 16:36:55;;;;;;;10.32;8.57;;;10.00;94.60;;;;;;5052246;28;20029;-81
2021/11/02 16:39:24;;;;;;;10.25;7.43;;;10.00;94.60;;;;;;5052230;28;20389;-81
2021/11/02 16:41:51;;;;;;;17.77;8.48;;;9.90;94.60;;;;;;5052946;28;20035;-81
2021/11/02 16:44:32;;;;;;;13.18;8.10;;;9.90;94.60;;;;;;5052094;28;20036;-81
2021/11/02 16:47:13;;;;;;;14.65;9.23;;;9.90;94.70;;;;;;5051647;28;20120;-81
2021/11/02 16:49:41;;;;;;;10.07;7.45;;;9.80;94.60;;;;;;5050662;28;20047;-82
2021/11/02 16:52:10;;;;;;;13.23;8.57;;;9.70;94.70;;;;;;5048382;28;20020;-82
2021/11/02 16:54:39;;;;;;;16.35;8.48;;;9.70;94.70;;;;;;5051420;28;20021;-82
2021/11/02 16:57:24;;;;;;;9.07;6.90;;;9.70;94.70;;;;;;5053179;28;20091;-82
2021/11/02 16:59:50;;;;;;;14.02;7.90;;;9.60;94.70;;;;;;5053341;28;20033;-81
2021/11/02 17:02:20;;;;;;;9.90;7.57;;;9.60;94.70;;;;;;5051709;28;20029;-81
2021/11/02 17:05:09;;;;;;;15.10;9.43;;;9.60;94.70;;;;;;5051699;28;20029;-81
2021/11/02 17:07:53;;;;;;;9.10;7.78;;;9.50;94.70;;;;;;5048879;28;20056;-84
2021/11/02 17:10:28;;;;;;;9.05;7.50;;;9.50;94.70;;;;;;5052186;28;20025;-81
2021/11/02 17:13:05;;;;;;;13.07;7.57;;;9.40;94.70;;;;;;5051896;28;20116;-81
2021/11/02 17:15:45;;;;;;;12.07;7.00;;;9.40;94.70;;;;;;5053073;28;20033;-81
2021/11/02 17:18:18;;;;;;;10.20;7.70;;;9.30;94.60;;;;;;5043611;28;20044;-81
2021/11/02 17:20:59;;;;;;;9.23;6.63;;;9.30;94.60;;;;;;5052975;28;20090;-81
2021/11/02 17:23:25;;;;;;;10.23;8.00;;;9.20;94.50;;;;;;5051964;28;20424;-81
2021/11/02 17:25:51;;;;;;;18.23;8.07;;;9.20;94.50;;;;;;5052734;28;20033;-81
2021/11/02 17:28:18;;;;;;;9.93;7.68;;;9.20;94.50;;;;;;5047978;28;20041;-81
2021/11/02 17:30:45;;;;;;;12.05;7.60;;;9.10;94.50;;;;;;5053059;28;20087;-81
2021/11/02 17:33:11;;;;;;;9.43;7.20;;;9.00;94.40;;;;;;5051910;28;20033;-81
2021/11/02 17:35:37;;;;;;;10.57;7.38;;;9.00;94.40;;;;;;5051568;28;20367;-82
2021/11/02 17:38:04;;;;;;;11.55;7.03;;;9.00;94.40;;;;;;5051620;28;20033;-82
2021/11/02 17:40:31;;;;;;;10.27;7.57;;;8.90;94.30;;;;;;5051388;28;20025;-82
2021/11/02 17:42:59;;;;;;;12.70;7.93;;;8.90;94.30;;;;;;5052952;28;20424;-82
2021/11/02 17:45:27;;;;;;;10.20;8.07;;;8.80;94.30;;;;;;5040965;28;20037;-82
2021/11/02 17:47:54;;;;;;;11.15;7.03;;;8.80;94.20;;;;;;5031853;28;20041;-81
2021/11/02 17:50:23;;;;;;;9.18;7.68;;;8.70;94.20;;;;;;5031053;28;20018;-81
2021/11/02 17:52:49;;;;;;;10.10;7.68;;;8.70;94.20;;;;;;5033046;28;20013;-81
2021/11/02 17:55:15;;;;;;;10.80;7.95;;;8.60;94.20;;;;;;5032357;28;20032;-82
2021/11/02 17:57:42;;;;;;;10.38;6.97;;;8.60;94.20;;;;;;5035142;28;20033;-82
2021/11/02 18:00:11;;;;;;;11.98;8.52;;;8.50;94.20;;;;;;5051486;28;20041;-82
2021/11/02 18:02:37;;;;;;;12.55;8.13;;;8.50;94.20;;;;;;5051180;28;20036;-83
2021/11/02 18:05:03;;;;;;;9.05;7.45;;;8.50;94.10;;;;;;5053837;28;20044;-82
2021/11/02 18:07:29;;;;;;;10.38;8.15;;;8.50;94.10;;;;;;5055612;28;20025;-82
2021/11/02 18:09:58;;;;;;;10.50;8.23;;;8.40;94.10;;;;;;5054177;28;20512;-82
2021/11/02 18:12:30;;;;;;;13.70;9.10;;;8.40;94.10;;;;;;5059615;28;20032;-82
2021/11/02 18:14:57;;;;;;;10.82;8.40;;;8.40;94.10;;;;;;5055255;28;20032;-82